createdAt,value
2022-12-25T00:00:20.738Z,27.03
2022-12-25T00:05:22.931Z,26.10
2022-12-25T00:10:28.106Z,25.77
2022-12-25T00:15:36.860Z,26.03
2022-12-25T00:20:38.749Z,27.70
2022-12-25T00:25:44.505Z,24.77
2022-12-25T00:30:46.267Z,25.43
2022-12-25T00:35:58.996Z,27.07
2022-12-25T00:41:07.256Z,26.30
2022-12-25T00:46:13.310Z,24.80
2022-12-25T00:51:17.626Z,25.40
2022-12-25T00:56:21.891Z,25.17
2022-12-25T01:01:25.739Z,27.87
2022-12-25T01:06:27.849Z,28.07
2022-12-25T01:11:33.830Z,32.87
2022-12-25T01:16:36.046Z,34.23
2022-12-25T01:21:38.006Z,34.03
2022-12-25T01:26:39.802Z,36.70
2022-12-25T01:31:41.905Z,38.17
2022-12-25T01:36:45.946Z,41.37
2022-12-25T01:41:52.293Z,39.07
2022-12-25T01:46:56.231Z,43.53
2022-12-25T01:52:23.918Z,44.53
2022-12-25T01:57:29.289Z,45.23
2022-12-25T02:02:33.721Z,42.43
2022-12-25T02:07:51.076Z,42.97
2022-12-25T02:13:00.098Z,42.07
2022-12-25T02:18:32.611Z,39.67
2022-12-25T02:23:49.570Z,41.37
2022-12-25T02:28:54.071Z,38.33
2022-12-25T02:34:17.258Z,45.43
2022-12-25T02:39:50.868Z,38.50
2022-12-25T02:45:11.784Z,46.57
2022-12-25T02:50:40.871Z,40.27
2022-12-25T02:56:05.413Z,41.23
2022-12-25T03:01:32.015Z,37.33
2022-12-25T03:06:46.663Z,38.77
2022-12-25T03:11:58.605Z,32.77
2022-12-25T03:17:01.470Z,31.77
2022-12-25T03:22:26.290Z,34.30
2022-12-25T03:27:32.247Z,30.77
2022-12-25T03:32:51.754Z,36.47
2022-12-25T03:38:40.141Z,30.00
2022-12-25T03:44:32.842Z,28.10
2022-12-25T03:50:03.833Z,34.77
2022-12-25T03:55:28.767Z,33.23
2022-12-25T04:01:03.612Z,31.27
2022-12-25T04:06:25.846Z,31.77
2022-12-25T04:11:46.100Z,34.80
2022-12-25T04:17:06.510Z,33.53
2022-12-25T04:22:28.553Z,35.50
2022-12-25T04:27:50.628Z,36.10
2022-12-25T04:33:15.865Z,33.30
2022-12-25T04:38:20.853Z,35.90
2022-12-25T04:43:25.097Z,37.80
2022-12-25T04:48:31.414Z,35.63
2022-12-25T04:53:33.121Z,36.63
2022-12-25T04:58:34.829Z,36.50
2022-12-25T05:03:39.723Z,37.23
2022-12-25T05:08:41.572Z,34.17
2022-12-25T05:13:43.249Z,35.37
2022-12-25T05:18:45.283Z,47.63
2022-12-25T05:23:53.367Z,34.20
2022-12-25T05:28:55.417Z,33.97
2022-12-25T05:33:59.436Z,33.30
2022-12-25T05:39:01.191Z,33.17
2022-12-25T05:44:09.604Z,34.83
2022-12-25T05:49:11.355Z,35.00
2022-12-25T05:54:13.045Z,34.80
2022-12-25T05:59:21.458Z,36.70
2022-12-25T06:04:26.665Z,30.83
2022-12-25T06:09:30.730Z,33.60
2022-12-25T06:14:33.744Z,32.00
2022-12-25T06:19:38.122Z,32.43
2022-12-25T06:24:42.189Z,31.30
2022-12-25T06:29:43.934Z,31.20
2022-12-25T06:34:48.798Z,28.40
2022-12-25T06:39:50.715Z,32.67
2022-12-25T06:44:57.900Z,32.87
2022-12-25T06:50:05.768Z,31.33
2022-12-25T06:55:09.926Z,34.10
2022-12-25T07:00:14.379Z,37.17
2022-12-25T07:05:16.382Z,36.33
2022-12-25T07:10:18.109Z,35.90
2022-12-25T07:15:19.816Z,34.60
2022-12-25T07:20:21.823Z,34.63
2022-12-25T07:25:30.840Z,37.63
2022-12-25T07:30:38.128Z,38.87
2022-12-25T07:35:41.310Z,42.07
2022-12-25T07:40:46.034Z,41.43
2022-12-25T07:45:48.108Z,41.00
2022-12-25T07:50:55.987Z,41.83
2022-12-25T07:56:03.240Z,42.53
2022-12-25T08:01:11.835Z,41.60
2022-12-25T08:06:17.369Z,39.20
2022-12-25T08:11:22.983Z,38.57
2022-12-25T08:16:27.657Z,36.10
2022-12-25T08:21:29.590Z,35.00
2022-12-25T08:26:39.290Z,35.47
2022-12-25T08:31:46.133Z,37.13
2022-12-25T08:36:48.472Z,36.03
2022-12-25T08:41:50.173Z,34.57
2022-12-25T08:46:51.851Z,35.30
2022-12-25T08:51:58.313Z,34.33
2022-12-25T08:57:03.205Z,33.33
2022-12-25T09:02:05.547Z,31.23
2022-12-25T09:07:07.390Z,32.33
2022-12-25T09:12:10.087Z,27.70
2022-12-25T09:17:11.961Z,29.67
2022-12-25T09:22:19.315Z,26.53
2022-12-25T09:27:21.015Z,28.30
2022-12-25T09:32:22.821Z,27.37
2022-12-25T09:37:24.783Z,28.13
2022-12-25T09:42:31.292Z,54.97
2022-12-25T09:47:35.977Z,30.13
2022-12-25T09:53:17.380Z,28.27
2022-12-25T09:58:19.116Z,29.67
2022-12-25T10:04:02.680Z,29.10
2022-12-25T10:09:10.321Z,26.97
2022-12-25T10:14:33.956Z,28.37
2022-12-25T10:19:41.585Z,36.03
2022-12-25T10:24:56.042Z,29.17
2022-12-25T10:29:58.759Z,29.67
2022-12-25T10:35:01.485Z,32.37
2022-12-25T10:40:04.159Z,30.23
2022-12-25T10:45:08.143Z,30.43
2022-12-25T10:50:22.446Z,40.47
2022-12-25T10:55:28.999Z,29.93
2022-12-25T11:00:32.780Z,28.57
2022-12-25T11:05:36.487Z,26.73
2022-12-25T11:10:56.404Z,27.10
2022-12-25T11:16:28.459Z,33.57
2022-12-25T11:21:30.356Z,28.70
2022-12-25T11:26:37.304Z,25.47
2022-12-25T11:31:43.396Z,27.07
2022-12-25T11:36:51.593Z,27.63
2022-12-25T11:42:14.942Z,27.80
2022-12-25T11:47:54.210Z,30.13
2022-12-25T11:53:03.735Z,28.70
2022-12-25T11:58:31.802Z,29.67
2022-12-25T12:03:39.976Z,27.83
2022-12-25T12:08:44.427Z,26.70
2022-12-25T12:14:29.614Z,26.00
2022-12-25T12:19:31.819Z,25.13
2022-12-25T12:24:45.657Z,25.57
2022-12-25T12:29:52.874Z,23.77
2022-12-25T12:34:55.117Z,25.00
2022-12-25T12:39:57.285Z,23.90
2022-12-25T12:45:32.259Z,24.47
2022-12-25T12:50:42.903Z,22.17
2022-12-25T12:55:44.958Z,20.87
2022-12-25T13:00:52.718Z,19.30
2022-12-25T13:06:23.845Z,19.20
2022-12-25T13:11:32.868Z,18.80
2022-12-25T13:16:42.601Z,19.67
2022-12-25T13:21:53.359Z,17.03
2022-12-25T13:26:57.541Z,17.10
2022-12-25T13:32:00.767Z,17.60
2022-12-25T13:37:17.008Z,17.07
2022-12-25T13:42:21.136Z,15.67
2022-12-25T13:47:29.703Z,16.97
2022-12-25T13:52:36.550Z,15.00
2022-12-25T13:57:44.991Z,14.70
2022-12-25T14:02:48.229Z,14.97
2022-12-25T14:07:54.884Z,13.60
2022-12-25T14:13:02.916Z,13.33
2022-12-25T14:18:06.433Z,13.07
2022-12-25T14:23:14.956Z,12.93
2022-12-25T14:28:22.191Z,12.80
2022-12-25T14:33:26.720Z,13.07
2022-12-25T14:38:35.044Z,13.85
2022-12-25T14:43:36.820Z,12.97
2022-12-25T14:48:38.538Z,13.47
2022-12-25T14:53:51.962Z,12.47
2022-12-25T14:58:57.869Z,14.00
2022-12-25T15:04:08.606Z,14.13
2022-12-25T15:09:15.949Z,17.27
2022-12-25T15:14:17.776Z,23.63
2022-12-25T15:19:28.277Z,19.30
2022-12-25T15:24:32.257Z,15.47
2022-12-25T15:30:08.590Z,15.00
2022-12-25T15:35:01.181Z,16.93
2022-12-25T15:40:06.911Z,15.83
2022-12-25T15:45:26.440Z,17.83
2022-12-25T15:50:32.618Z,17.93
2022-12-25T15:55:36.647Z,19.90
2022-12-25T16:00:40.893Z,20.90
2022-12-25T16:05:42.657Z,21.17
2022-12-25T16:10:44.474Z,20.00
2022-12-25T16:15:53.135Z,20.83
2022-12-25T16:21:01.138Z,22.83
2022-12-25T16:26:06.870Z,22.07
2022-12-25T16:31:08.904Z,20.93
2022-12-25T16:36:11.571Z,20.37
2022-12-25T16:41:14.277Z,19.13
2022-12-25T16:46:18.787Z,19.13
2022-12-25T16:51:24.779Z,21.23
2022-12-25T16:56:30.738Z,19.83
2022-12-25T17:01:32.934Z,22.40
2022-12-25T17:06:34.957Z,22.30
2022-12-25T17:11:41.084Z,22.20
2022-12-25T17:16:42.969Z,28.10
2022-12-25T17:21:49.170Z,27.63
2022-12-25T17:26:53.365Z,25.17
2022-12-25T17:31:57.588Z,31.77
2022-12-25T17:36:59.488Z,25.30
2022-12-25T17:42:03.437Z,25.37
2022-12-25T17:47:07.714Z,29.80
2022-12-25T17:52:10.402Z,27.93
2022-12-25T17:57:15.052Z,32.27
2022-12-25T18:02:16.914Z,29.07
2022-12-25T18:07:21.073Z,28.83
2022-12-25T18:12:22.813Z,28.20
2022-12-25T18:17:25.650Z,27.60
2022-12-25T18:22:27.502Z,28.50
2022-12-25T18:27:29.214Z,29.73
2022-12-25T18:32:33.289Z,26.77
2022-12-25T18:37:40.062Z,30.87
2022-12-25T18:42:43.305Z,27.80
2022-12-25T18:47:47.859Z,27.73
2022-12-25T18:52:51.884Z,26.33
2022-12-25T18:57:59.637Z,32.03
2022-12-25T19:03:01.510Z,30.87
2022-12-25T19:08:07.103Z,32.20
2022-12-25T19:13:11.161Z,35.00
2022-12-25T19:18:12.958Z,33.90
2022-12-25T19:23:17.020Z,39.57
2022-12-25T19:28:21.302Z,33.27
2022-12-25T19:33:25.229Z,38.70
2022-12-25T19:38:29.492Z,32.67
2022-12-25T19:43:33.661Z,32.93
2022-12-25T19:48:35.536Z,34.57
2022-12-25T19:53:39.503Z,50.90
2022-12-25T19:58:41.233Z,49.63
2022-12-25T20:03:46.316Z,41.33
2022-12-25T20:08:59.189Z,37.13
2022-12-25T20:14:03.235Z,32.73
2022-12-25T20:19:08.009Z,31.20
2022-12-25T20:24:12.505Z,29.40
2022-12-25T20:29:15.011Z,29.83
2022-12-25T20:34:16.837Z,30.17
2022-12-25T20:39:20.586Z,32.53
2022-12-25T20:44:22.346Z,30.87
2022-12-25T20:49:27.870Z,32.20
2022-12-25T20:54:32.022Z,31.93
2022-12-25T20:59:37.603Z,31.80
2022-12-25T21:04:40.873Z,29.20
2022-12-25T21:09:45.515Z,30.53
2022-12-25T21:14:52.600Z,28.43
2022-12-25T21:19:54.317Z,32.50
2022-12-25T21:25:03.751Z,31.47
2022-12-25T21:30:14.996Z,33.07
2022-12-25T21:35:17.569Z,28.40
2022-12-25T21:40:21.584Z,27.13
2022-12-25T21:45:25.900Z,35.37
2022-12-25T21:50:48.918Z,30.53
2022-12-25T21:56:02.477Z,26.37
2022-12-25T22:01:04.445Z,32.27
2022-12-25T22:06:29.120Z,24.13
2022-12-25T22:11:49.239Z,21.03
2022-12-25T22:17:09.560Z,25.57
2022-12-25T22:22:24.298Z,26.70
2022-12-25T22:27:35.735Z,25.60
2022-12-25T22:32:39.683Z,34.80
2022-12-25T22:37:42.312Z,47.73
2022-12-25T22:42:44.428Z,46.23
2022-12-25T22:47:51.151Z,42.23
2022-12-25T22:53:00.124Z,50.93
2022-12-25T22:58:04.708Z,45.80
2022-12-25T23:03:09.035Z,43.77
2022-12-25T23:08:20.274Z,52.47
2022-12-25T23:13:40.620Z,48.13
2022-12-25T23:19:03.086Z,42.63
2022-12-25T23:24:24.169Z,42.60
2022-12-25T23:29:37.834Z,40.83
2022-12-25T23:34:46.040Z,37.60
2022-12-25T23:39:50.499Z,38.47
2022-12-25T23:44:53.001Z,39.50
2022-12-25T23:49:57.659Z,38.83
2022-12-25T23:54:59.393Z,40.70
